AirNav   Pilot Hours Calculator
 
 458 users online  

FL34 Eglin Test Site B6 Airport
Valparaiso, Florida, USA

GOING TO VALPARAISO?


FAA INFORMATION EFFECTIVE 08 OCTOBER 2020

Location

FAA Identifier: FL34
Lat/Long: 30-37-54.6900N 086-44-49.8400W
30-37.911500N 086-44.830667W
30.6318583,-86.7471778
(estimated)
Elevation: 120 ft. / 37 m (estimated)
Variation: 01W (2000)
From city: 14 miles NW of VALPARAISO, FL
Time zone: UTC -5 (UTC -6 during Standard Time)
Zip code: 32544

Airport Operations

Airport use: Private use. Permission required prior to landing
Control tower: no
ARTCC: JACKSONVILLE CENTER
FSS: GAINESVILLE FLIGHT SERVICE STATION
Attendance: UNATNDD
Wind indicator: yes
Segmented circle: no

Airport Communications

WX ASOS at NDZ (14 nm W): PHONE 850-623-7210
WX ASOS at CEW (15 nm NE): 119.275 (850-682-1237)
WX ASOS at NSE (15 nm W): PHONE 850-623-7241
WX ASOS at DTS (20 nm SE): PHONE 850-654-7128
  • ELEV: 39.5

Nearby radio navigation aids

VOR radial/distance  VOR name  Freq  Var
CEWr194/12.2CRESTVIEW VORTAC115.9003E
NUNr072/(31.9)SAUFLEY VOR108.8001E

 
NDB name  Hdg/Dist  Freq  Var  ID
PICKENS064/25.232602WPKZ .--. -.- --..

Airport Services

Airframe service: NONE
Powerplant service: NONE
Bottled oxygen: NONE
Bulk oxygen: LOW

Runway Information

Runway 18/36

Dimensions: 5022 x 90 ft. / 1531 x 27 m
Surface: asphalt
Weight bearing capacity: 
Single wheel: 35.0
Double wheel: 78.0
RUNWAY 18  RUNWAY 36
Latitude: 30-38.430000N30-37.601667N
Longitude: 086-44.558333W086-44.571667W
Elevation: 119.0 ft.117.0 ft.
Traffic pattern: leftleft
Markings: nonprecision, in good conditionnonprecision, in good condition
Runway end identifier lights: nono
Touchdown point: yes, no lightsyes, no lights

Airport Ownership and Management from official FAA records

Ownership: U.S. Air Force
Owner: USAF
DEPT OF THE AF,HDQRTS ADTC
EGLIN AFB, FL 32542
Manager: CHIEF OF AFLD MANAGEMENT
DEPT OF THE AF,HDQRTS ADTC
EGLIN AFB, FL 32542
Phone 904-882-2013
AIR TFC REP BASE OPS OFF TEL 904-882-3608.

Additional Remarks

INACTV NO FAC. PPR EGLIN AFB BASE OPS.
FOR CD CTC EGLIN APCH 850-882-9152 OR 850-882-9151.

Instrument Procedures

There are no published instrument procedures at FL34.

Some nearby airports with instrument procedures:

KEGI - Duke Field (Eglin AF Aux Nr 3) Airport (12 nm E)
KHRT - Hurlburt Field Airport (13 nm S)
2R4 - Peter Prince Field Airport (13 nm W)
KNDZ - Whiting Field Naval Air Station South (14 nm W)
KVPS - Eglin Air Force Base/Destin-Fort Walton Beach Airport (14 nm SE)
KCEW - Bob Sikes Airport (15 nm NE)
KNSE - Whiting Field Naval Air Station North (15 nm W)
KDTS - Destin Executive Airport (20 nm SE)
 
Loc | Ops | Rwys | IFR | FBO | Links
Com | Nav | Svcs | Stats | Notes

Continental Services
AirBoss

 
Area around FL34 (Eglin Test Site B6 Airport)
 
Road maps at: MapQuest Bing Google
 
Aerial photo
No photo
 
Sectional chart

 
Airport distance calculator
Flying to Eglin Test Site B6 Airport? Find the distance to fly.

From to FL34

Sunrise and sunset
Times for 22-Oct-2020
 Local
(UTC-5)
 Zulu
(UTC)
Morning civil twilight06:3111:31
Sunrise06:5611:56
Sunset18:0723:07
Evening civil twilight18:3123:31

Current date and time
Zulu (UTC)  22-Oct-2020 10:01:08
Local (UTC-5)  22-Oct-2020 05:01:08
 
METAR
KEGI 
12nm E 
220555Z 05004KT 10SM CLR 21/20 A3005 RMK AO2A SLP172 WND DATA ESTMD ALSTG/SLP ESTMD 10238 20217 402770193 57007
KHRT 
14nm S 
220946Z 08007KT 10SM BKN008 22/20 A3002 RMK AO2A SLP167 $
KCEW 
14nm NE 
220953Z AUTO 00000KT 10SM CLR 19/18 A3006 RMK AO2 SLP178 T01940183
KNSE 
15nm W 
220856Z AUTO 06004KT 9SM CLR 20/19 A3004 RMK AO2 SLP158 T02000194 55000 $
KNDZ 
15nm W 
220856Z AUTO 06006KT 10SM CLR 21/20 A3004 RMK AO2 SLP158 T02110200 55000 $
KVPS 
15nm SE 
220858Z 06006KT 7SM FEW014 22/21 A3004 RMK SLP173 WND DATA ESTMD ALSTG/SLP ESTMD 54002
KDTS 
20nm SE 
220953Z AUTO 08005KT 10SM BKN008 BKN012 22/21 A3004 RMK AO2 CIG 007V010 SLP171 T02220206
TAF
KEGI 
12nm E 
220601Z 2206/2307 06009KT 9999 SCT030 BKN150 QNH3003INS BECMG 2207/2208 05006KT 6000 BR BKN009 OVC020 QNH3004INS TEMPO 2211/2214 OVC006 BECMG 2214/2215 09009KT 9999 NSW SCT009 BKN015 OVC025 QNH3005INS BECMG 2216/2217 09010G15KT 9999 SCT020 SCT100 QNH3000INS BECMG 2301/2302 06009KT 9999 SCT100 QNH2998INS TX31/2220Z TN20/2213Z LAST NO AMDS AFT 2206 NEXT 2209
KHRT 
14nm S 
220200Z 2202/2308 07008KT 9999 FEW030 QNH3001INS BECMG 2208/2209 07005KT 9999 BKN010 QNH3002INS BECMG 2214/2215 09010KT 9999 FEW015 BKN035 QNH2998INS TX29/2220Z TN21/2211Z
KNSE 
15nm W 
2207/2307 07006KT 9999 SKC QNH2999INS TEMPO 2208/2214 3200 BR BKN005 OVC015 BECMG 2214/2216 09008KT 9999 NSW SCT020 SCT030 BKN050 BKN080 QNH3000INS BECMG 2218/2220 110008KT SCT020 SCT030 BKN060 QNH2995INS BECMG 2301/2303 09005KT SCT020 SCT0050 QNH2997INS AUTOMATED SENSOR WATCH 2207 TIL 2211 T20/2211Z T28/2218Z FN00235
KVPS 
15nm SE 
220100Z 2201/2307 07006KT 9999 FEW025 SCT055 QNH3005INS BECMG 2207/2208 06008KT 9999 SCT006 BKN015 QNH3004INS TEMPO 2211/2214 4800 BR BKN007 BKN009 BECMG 2214/2215 07013G18KT 9999 FEW011 SCT070 BKN160 QNH3003INS BECMG 2221/2222 08006KT 9999 BKN035 QNH2999INS BECMG 2302/2303 06005KT 4800 BR SCT010 BKN022 QNH3000INS TX31/2220Z TN20/2211Z
NOTAMs
Click for the latest NOTAMs
NOTAMs are issued by the DoD/FAA and will open in a separate window not controlled by AirNav.

 

 
 

Would you like to see your business listed on this page?

 If your business provides an interesting product or service to pilots, flight crews, aircraft, or users of the Eglin Test Site B6 Airport, you should consider listing it here.  To start the listing process, click on the button below
 
Add a business
 

Other Pages about Eglin Test Site B6 Airport

Update a link
 
Copyright © AirNav, LLC. All rights reserved. Privacy Policy  Contact